Time;durP1;ratioP1;P1;durP2;ratioP2;P2;SDS_P1;SDS_P2;PMS_P1;PMS_P2;Temp;Humidity;BMP_temperature;BMP_pressure;BME280_temperature;BME280_humidity;BME280_pressure;Samples;Min_cycle;Max_cycle;Signal;HPM_P1;HPM_P2
2022/06/18 00:02:17;;;;;;;2.95;2.47;;;;;;;19.85;72.87;101115.72;5037766;28;103915;-51
2022/06/18 00:04:47;;;;;;;2.40;2.20;;;;;;;19.86;72.79;101120.09;5037663;28;102504;-51
2022/06/18 00:07:17;;;;;;;2.45;2.25;;;;;;;19.84;72.61;101108.59;5038657;28;102439;-51
2022/06/18 00:09:49;;;;;;;2.60;2.40;;;;;;;19.86;72.78;101127.56;5038672;28;102122;-50
2022/06/18 00:15:12;;;;;;;2.63;2.42;;;;;;;19.86;72.61;101122.06;5031904;28;102674;-51
2022/06/18 00:17:41;;;;;;;2.38;2.17;;;;;;;19.85;72.74;101124.00;5025667;28;102550;-51
2022/06/18 00:20:10;;;;;;;2.67;2.47;;;;;;;19.86;73.02;101125.63;5030559;28;102481;-51
2022/06/18 00:22:37;;;;;;;3.03;2.65;;;;;;;19.86;72.89;101133.09;5034042;28;103930;-51
2022/06/18 00:25:15;;;;;;;3.25;3.00;;;;;;;19.85;72.78;101135.06;5032742;28;102431;-51
2022/06/18 00:27:43;;;;;;;2.85;2.65;;;;;;;19.85;73.14;101132.28;5038035;28;102243;-51
2022/06/18 00:30:12;;;;;;;2.90;2.70;;;;;;;19.85;73.02;101135.06;5038867;28;102671;-51
2022/06/18 00:32:38;;;;;;;;;;;;;;;19.85;73.07;101132.28;5035117;28;108147;-51
2022/06/18 00:35:06;;;;;;;3.22;2.38;;;;;;;19.86;72.55;101136.69;5035115;28;102646;-51
2022/06/18 00:37:33;;;;;;;2.70;2.50;;;;;;;19.85;72.68;101137.81;5036743;28;102391;-51
2022/06/18 00:40:00;;;;;;;2.90;2.70;;;;;;;19.85;72.87;101129.53;5033614;28;102410;-52
2022/06/18 00:42:30;;;;;;;3.08;2.58;;;;;;;19.86;72.98;101135.88;5024461;28;104075;-50
2022/06/18 00:45:00;;;;;;;3.03;2.72;;;;;;;19.85;72.64;101132.28;5030301;27;102511;-51
2022/06/18 00:47:31;;;;;;;2.90;2.60;;;;;;;19.84;72.66;101130.69;5034018;27;102873;-51
2022/06/18 00:50:04;;;;;;;2.53;2.33;;;;;;;19.86;72.61;101127.56;5021460;28;102140;-51
2022/06/18 00:52:39;;;;;;;2.78;2.55;;;;;;;19.84;72.78;101125.16;5031962;28;104048;-51
2022/06/18 00:55:10;;;;;;;2.92;2.72;;;;;;;19.84;72.69;101119.63;5027083;28;102498;-51
2022/06/18 00:57:45;;;;;;;2.78;2.58;;;;;;;19.84;72.79;101122.38;5034534;28;102074;-51
2022/06/18 01:00:19;;;;;;;2.90;2.70;;;;;;;19.84;73.08;101119.63;5036763;28;102741;-51
2022/06/18 01:02:48;;;;;;;2.85;2.55;;;;;;;19.85;73.02;101110.19;5031796;28;103914;-51
2022/06/18 01:05:19;;;;;;;3.25;2.95;;;;;;;19.85;73.04;101117.69;5034100;28;102525;-51
2022/06/18 01:07:54;;;;;;;2.90;2.70;;;;;;;19.85;72.87;101121.25;5034769;28;102274;-50
2022/06/18 01:10:27;;;;;;;3.00;2.70;;;;;;;19.84;72.68;101119.63;5037045;27;102564;-50
2022/06/18 01:12:58;;;;;;;3.30;3.00;;;;;;;19.84;72.93;101127.91;5025529;28;103907;-50
2022/06/18 01:15:27;;;;;;;2.70;2.50;;;;;;;19.83;72.68;101119.94;5034868;28;102013;-50
2022/06/18 01:17:55;;;;;;;2.90;2.70;;;;;;;19.83;72.91;101129.03;5027987;28;102020;-51
2022/06/18 01:20:24;;;;;;;3.38;3.03;;;;;;;19.82;72.96;101119.13;5028281;28;102524;-50
2022/06/18 01:23:01;;;;;;;2.83;2.63;;;;;;;19.83;72.96;101117.19;5021586;28;104168;-51
2022/06/18 01:25:31;;;;;;;2.67;2.47;;;;;;;19.83;72.80;101129.03;5030364;28;102273;-51
2022/06/18 01:27:59;;;;;;;2.55;2.40;;;;;;;19.82;72.92;101110.84;5032614;28;101994;-51
2022/06/18 01:30:32;;;;;;;2.95;2.75;;;;;;;19.83;72.74;101117.19;5037127;28;102204;-50
2022/06/18 01:33:00;;;;;;;3.13;2.90;;;;;;;19.82;72.94;101116.38;5034477;28;104052;-50
2022/06/18 01:35:26;;;;;;;3.13;2.85;;;;;;;19.82;72.88;101121.88;5032651;28;102694;-50
2022/06/18 01:37:53;;;;;;;3.05;2.85;;;;;;;19.82;72.89;101121.88;5035610;28;101982;-51
2022/06/18 01:40:25;;;;;;;2.80;2.60;;;;;;;19.81;73.17;101114.75;5035996;28;102233;-51
2022/06/18 01:42:58;;;;;;;3.35;2.50;;;;;;;19.83;72.88;101117.19;5027466;28;103971;-51
2022/06/18 01:45:27;;;;;;;2.80;2.60;;;;;;;19.82;72.84;101116.38;5034756;27;102015;-51
2022/06/18 01:47:58;;;;;;;2.83;2.63;;;;;;;19.81;73.05;101114.75;5036128;28;102087;-51
2022/06/18 01:50:29;;;;;;;2.70;2.50;;;;;;;19.80;72.78;101118.66;5026911;28;102391;-51
2022/06/18 01:53:02;;;;;;;3.53;3.22;;;;;;;19.80;72.79;101121.41;5035711;28;104191;-51
2022/06/18 01:55:33;;;;;;;2.95;2.67;;;;;;;19.81;72.92;101120.28;5036363;28;102262;-51
2022/06/18 01:58:05;;;;;;;3.03;2.72;;;;;;;19.81;73.04;101125.00;5033272;28;102234;-51
2022/06/18 02:00:32;;;;;;;2.85;2.65;;;;;;;19.82;72.57;101134.91;5035417;28;102397;-52
2022/06/18 02:03:00;;;;;;;2.90;2.70;;;;;;;19.83;72.68;101133.75;5034170;28;104202;-52
2022/06/18 02:05:27;;;;;;;2.70;2.50;;;;;;;19.82;72.57;101138.47;5027135;28;102542;-51
2022/06/18 02:07:53;;;;;;;2.88;2.60;;;;;;;19.82;72.71;101138.47;5036431;28;102351;-50
2022/06/18 02:10:27;;;;;;;4.97;2.95;;;;;;;19.83;72.70;101145.59;5032239;28;102328;-50
2022/06/18 02:12:56;;;;;;;2.88;2.67;;;;;;;19.82;72.63;101143.97;5035146;28;103996;-51
2022/06/18 02:15:29;;;;;;;2.85;2.60;;;;;;;19.82;72.59;101148.69;5035358;28;102335;-51
2022/06/18 02:17:58;;;;;;;3.22;3.00;;;;;;;19.81;72.85;101142.38;5032878;28;102506;-50
2022/06/18 02:20:28;;;;;;;3.10;2.80;;;;;;;19.81;72.90;101153.41;5032387;27;102140;-51
2022/06/18 02:22:56;;;;;;;3.25;2.95;;;;;;;19.81;73.00;101147.88;5032371;28;103861;-50
2022/06/18 02:25:29;;;;;;;3.33;3.03;;;;;;;19.81;72.73;101147.09;5025595;28;102437;-50
2022/06/18 02:27:59;;;;;;;3.20;2.90;;;;;;;19.81;72.48;101147.09;5017503;28;102636;-51
2022/06/18 02:30:31;;;;;;;2.88;2.67;;;;;;;19.82;72.84;101159.75;5034829;28;102737;-50
2022/06/18 02:33:01;;;;;;;3.33;3.03;;;;;;;19.81;72.51;101153.41;5035185;28;103930;-50
2022/06/18 02:35:30;;;;;;;3.72;3.42;;;;;;;19.80;72.93;101160.09;5031133;28;102255;-50
2022/06/18 02:37:57;;;;;;;3.05;2.85;;;;;;;19.79;72.87;101155.69;5030717;28;102100;-51
2022/06/18 02:40:27;;;;;;;3.05;2.85;;;;;;;19.80;72.78;101165.59;5024783;28;102163;-50
2022/06/18 02:42:57;;;;;;;3.00;2.80;;;;;;;19.81;72.87;101163.66;5028802;28;103927;-51
2022/06/18 02:45:27;;;;;;;3.20;2.90;;;;;;;19.80;72.98;101179.41;5031549;28;102216;-51
2022/06/18 02:47:57;;;;;;;3.38;3.08;;;;;;;19.81;72.90;101174.69;5032111;28;102070;-51
2022/06/18 02:50:28;;;;;;;3.42;3.15;;;;;;;19.80;72.80;101173.91;5034455;28;102202;-51
2022/06/18 02:53:02;;;;;;;3.10;2.90;;;;;;;19.80;73.08;101170.28;5034603;28;103874;-51
2022/06/18 02:55:31;;;;;;;3.10;2.90;;;;;;;19.81;72.88;101177.47;5031859;28;102354;-51
2022/06/18 02:58:02;;;;;;;3.22;2.92;;;;;;;19.79;72.89;101172.25;5034599;28;102569;-50
2022/06/18 03:00:36;;;;;;;4.28;3.10;;;;;;;19.79;72.58;101177.78;5034551;28;102115;-51
2022/06/18 03:03:06;;;;;;;4.18;3.10;;;;;;;19.79;72.77;101171.44;5034275;28;103960;-51
2022/06/18 03:05:33;;;;;;;2.88;2.63;;;;;;;19.78;73.00;101170.63;5032359;28;102570;-50
2022/06/18 03:07:59;;;;;;;3.40;3.10;;;;;;;19.79;72.66;101171.44;5034837;28;102282;-50
2022/06/18 03:13:12;;;;;;;3.50;3.20;;;;;;;19.81;72.50;101169.19;5033155;28;104007;-50
2022/06/18 03:15:45;;;;;;;3.20;2.90;;;;;;;19.79;72.59;101169.47;5032794;28;102755;-50
2022/06/18 03:18:15;;;;;;;3.08;2.88;;;;;;;19.80;72.22;101171.13;5028522;28;102150;-50
2022/06/18 03:20:57;;;;;;;4.53;3.22;;;;;;;19.80;72.50;101173.91;5028181;28;102765;-51
2022/06/18 03:23:25;;;;;;;3.45;2.53;;;;;;;19.81;72.45;101164.47;5023405;28;103788;-51
2022/06/18 03:25:52;;;;;;;3.50;3.20;;;;;;;19.80;72.34;101173.91;5029694;28;102380;-50
2022/06/18 03:28:21;;;;;;;3.30;2.75;;;;;;;19.80;72.45;101162.00;5034077;28;102365;-51
2022/06/18 03:30:49;;;;;;;3.35;3.05;;;;;;;19.79;72.32;101165.91;5034087;28;102528;-51
2022/06/18 03:33:16;;;;;;;3.40;3.10;;;;;;;19.79;72.13;101157.63;5034430;28;104028;-51
2022/06/18 03:35:45;;;;;;;3.42;3.13;;;;;;;19.78;72.28;101173.38;5033600;28;102408;-51
2022/06/18 03:38:13;;;;;;;3.30;3.00;;;;;;;19.79;72.29;101165.91;5036547;28;102464;-51
2022/06/18 03:40:40;;;;;;;3.97;3.60;;;;;;;19.78;72.68;101164.28;5036040;28;102620;-51
2022/06/18 03:43:07;;;;;;;3.30;3.10;;;;;;;19.77;72.51;101169.00;5035272;27;103830;-51
2022/06/18 03:45:40;;;;;;;3.40;3.10;;;;;;;19.77;72.74;101162.69;5036317;28;102052;-51
2022/06/18 03:48:14;;;;;;;3.70;3.40;;;;;;;19.76;72.10;101167.38;5037170;28;102535;-51
2022/06/18 03:50:41;;;;;;;3.78;3.47;;;;;;;19.77;72.83;101169.00;5031509;28;102578;-51
2022/06/18 03:53:09;;;;;;;4.10;3.72;;;;;;;19.76;72.62;101159.06;5034910;27;103995;-51
2022/06/18 03:55:37;;;;;;;3.83;3.53;;;;;;;19.76;72.68;101167.38;5039266;28;102045;-51
2022/06/18 03:58:04;;;;;;;4.10;3.70;;;;;;;19.77;72.68;101174.53;5036377;28;102252;-52
2022/06/18 04:00:31;;;;;;;4.30;4.00;;;;;;;19.78;72.58;101176.16;5036249;28;102456;-51
2022/06/18 04:02:58;;;;;;;4.70;4.30;;;;;;;19.77;72.84;101171.78;5037291;28;103581;-51
2022/06/18 04:05:27;;;;;;;4.57;4.18;;;;;;;19.77;72.24;101171.78;5026383;28;102688;-52
2022/06/18 04:07:54;;;;;;;4.07;3.78;;;;;;;19.77;72.73;101174.53;5032276;28;102119;-51
2022/06/18 04:10:22;;;;;;;4.65;4.25;;;;;;;19.78;72.36;101181.69;5032814;28;102638;-51
2022/06/18 04:12:49;;;;;;;3.92;3.63;;;;;;;19.80;72.37;101184.94;5036946;28;104106;-51
2022/06/18 04:15:18;;;;;;;4.50;4.10;;;;;;;19.79;71.93;101186.06;5035214;28;102423;-51
2022/06/18 04:17:45;;;;;;;4.78;4.38;;;;;;;19.80;71.49;101184.94;5037428;28;101925;-50
2022/06/18 04:20:19;;;;;;;4.75;4.35;;;;;;;19.81;71.81;101197.59;5034570;28;102220;-51
2022/06/18 04:22:47;;;;;;;4.82;4.45;;;;;;;19.81;71.54;101191.28;5021117;28;103909;-50
2022/06/18 04:25:13;;;;;;;7.47;4.80;;;;;;;19.80;nan;101182.19;5032581;28;102290;-51
2022/06/18 04:27:41;;;;;;;6.97;5.30;;;;;;;19.80;71.70;101189.63;5037908;28;102279;-51
2022/06/18 04:30:08;;;;;;;5.55;5.05;;;;;;;19.80;71.96;101190.47;5033054;28;102584;-50
2022/06/18 04:32:36;;;;;;;4.70;4.30;;;;;;;19.81;71.63;101192.06;5032228;28;103882;-51
2022/06/18 04:35:04;;;;;;;5.72;5.13;;;;;;;19.80;71.60;101195.97;5033479;28;104825;-51
2022/06/18 04:37:31;;;;;;;5.10;4.70;;;;;;;19.81;71.58;101197.59;5035296;28;102153;-50
2022/06/18 04:39:59;;;;;;;5.40;4.90;;;;;;;19.81;71.62;101192.06;5038014;28;102157;-51
2022/06/18 04:42:26;;;;;;;5.30;4.90;;;;;;;19.83;71.75;101197.28;5034731;27;103905;-51
2022/06/18 04:44:56;;;;;;;7.70;5.30;;;;;;;19.83;71.38;101198.06;5034274;27;102114;-50
2022/06/18 04:47:23;;;;;;;5.93;5.43;;;;;;;19.84;71.35;101202.50;5033510;28;102237;-51
2022/06/18 04:49:50;;;;;;;5.75;5.25;;;;;;;19.85;71.36;101201.34;5032730;28;102939;-51
2022/06/18 04:52:18;;;;;;;4.93;4.53;;;;;;;19.86;71.47;101204.91;5033546;28;104017;-51
2022/06/18 04:54:46;;;;;;;5.03;4.63;;;;;;;19.84;71.64;101213.53;5031243;28;102571;-51
2022/06/18 04:57:14;;;;;;;5.80;5.30;;;;;;;19.86;71.37;101205.72;5034041;28;102327;-51
2022/06/18 04:59:47;;;;;;;6.18;5.57;;;;;;;19.86;71.38;101204.91;5037580;28;102115;-51
2022/06/18 05:02:19;;;;;;;5.93;5.43;;;;;;;19.86;71.45;101211.25;5031238;28;103949;-51
2022/06/18 05:04:46;;;;;;;6.20;5.70;;;;;;;19.86;71.04;101204.91;5033870;28;102214;-51
2022/06/18 05:07:13;;;;;;;6.78;5.80;;;;;;;19.86;71.37;101197.44;5026534;28;106458;-51
2022/06/18 05:09:41;;;;;;;6.67;6.07;;;;;;;19.87;71.18;101203.78;5030538;28;103554;-50
2022/06/18 05:12:08;;;;;;;6.20;5.60;;;;;;;19.87;71.41;101201.00;5034353;28;103937;-51
2022/06/18 05:14:36;;;;;;;7.35;6.28;;;;;;;19.86;71.39;101205.72;5033010;28;102042;-51
2022/06/18 05:17:04;;;;;;;6.78;6.18;;;;;;;19.88;70.77;101214.50;5027063;28;102563;-51
2022/06/18 05:19:33;;;;;;;6.60;6.07;;;;;;;19.88;70.65;101210.94;5032074;28;102642;-50
2022/06/18 05:22:00;;;;;;;6.22;5.72;;;;;;;19.89;70.31;101220.84;5025862;28;103924;-51
2022/06/18 05:24:27;;;;;;;6.82;6.22;;;;;;;19.89;71.07;101218.91;5027151;28;102472;-51
2022/06/18 05:26:56;;;;;;;6.70;6.00;;;;;;;19.90;71.19;101216.94;5035067;28;102063;-51
2022/06/18 05:29:23;;;;;;;6.80;6.20;;;;;;;19.89;70.99;101220.84;5034413;28;102161;-50
2022/06/18 05:31:51;;;;;;;11.68;6.78;;;;;;;19.88;70.72;101228.31;5031099;28;103918;-51
2022/06/18 05:34:18;;;;;;;6.50;6.00;;;;;;;19.86;71.31;101224.25;5034343;28;102206;-51
2022/06/18 05:36:45;;;;;;;7.47;6.88;;;;;;;19.86;71.31;101227.81;5036453;28;103190;-50
2022/06/18 05:39:19;;;;;;;6.32;5.80;;;;;;;19.86;70.75;101233.34;5035787;28;103894;-51
2022/06/18 05:41:46;;;;;;;6.15;5.55;;;;;;;19.84;70.73;101234.81;5027224;28;103931;-51
2022/06/18 05:44:13;;;;;;;6.63;6.03;;;;;;;19.83;71.31;101244.22;5033646;28;102617;-51
2022/06/18 05:46:40;;;;;;;6.45;5.68;;;;;;;19.82;71.00;101240.66;5030282;28;102130;-52
2022/06/18 05:49:09;;;;;;;7.15;6.55;;;;;;;19.83;71.11;101250.56;5038178;28;102549;-51
2022/06/18 05:51:36;;;;;;;6.93;6.32;;;;;;;19.82;71.69;101251.69;5028753;28;103951;-51
2022/06/18 05:54:03;;;;;;;7.30;6.70;;;;;;;19.82;71.00;101246.19;5034733;28;102431;-51
2022/06/18 05:56:30;;;;;;;7.70;6.97;;;;;;;19.82;71.17;101246.19;5031189;28;102073;-51
2022/06/18 05:58:57;;;;;;;8.90;7.63;;;;;;;19.81;70.89;101252.84;5031565;28;102551;-51
2022/06/18 06:01:24;;;;;;;7.38;6.63;;;;;;;19.82;71.74;101257.22;5032738;28;103940;-51
2022/06/18 06:03:50;;;;;;;7.25;6.55;;;;;;;19.80;71.20;101251.22;5035773;28;102075;-51
2022/06/18 06:06:18;;;;;;;8.05;7.35;;;;;;;19.82;71.02;101261.94;5034089;28;102453;-51
2022/06/18 06:08:45;;;;;;;7.65;7.00;;;;;;;19.82;71.04;101264.69;5035599;28;102396;-51
2022/06/18 06:11:30;;;;;;;8.23;7.53;;;;;;;19.81;70.74;101269.41;5026610;28;104478;-51
2022/06/18 06:13:58;;;;;;;8.43;6.85;;;;;;;19.80;71.31;101266.94;5016213;28;102166;-51
2022/06/18 06:16:25;;;;;;;8.50;7.70;;;;;;;19.79;71.14;101270.84;5015878;28;102122;-51
2022/06/18 06:18:51;;;;;;;7.63;7.03;;;;;;;19.79;71.10;101270.84;5017335;28;102172;-51
2022/06/18 06:21:22;;;;;;;8.57;7.78;;;;;;;19.83;70.45;101280.13;5022446;28;104062;-51
2022/06/18 06:23:50;;;;;;;7.68;6.68;;;;;;;19.82;72.06;101276.56;5025698;28;101854;-51
2022/06/18 06:26:19;;;;;;;7.35;6.75;;;;;;;19.82;71.28;101282.06;5015993;28;102150;-51
2022/06/18 06:28:46;;;;;;;8.25;7.50;;;;;;;19.84;70.67;101274.31;5017234;28;102466;-51
2022/06/18 06:31:14;;;;;;;8.20;7.50;;;;;;;19.83;70.70;101272.66;5015369;28;104039;-50
2022/06/18 06:33:42;;;;;;;7.60;6.90;;;;;;;19.83;70.71;101277.38;5016197;28;102303;-50
2022/06/18 06:36:12;;;;;;;7.18;6.60;;;;;;;19.82;70.95;101275.75;5016186;28;102290;-51
2022/06/18 06:38:40;;;;;;;6.80;6.20;;;;;;;19.81;70.75;101283.22;5022775;28;102088;-50
2022/06/18 06:41:11;;;;;;;;;;;;;;;19.81;70.91;101285.97;5033076;28;103944;-50
2022/06/18 06:43:38;;;;;;;7.90;7.20;;;;;;;19.81;70.89;101277.69;5035208;28;102183;-50
2022/06/18 06:46:05;;;;;;;8.02;7.32;;;;;;;19.81;70.95;101274.94;5029449;28;102762;-50
2022/06/18 06:48:32;;;;;;;8.32;7.63;;;;;;;19.80;70.55;101276.09;5017375;28;102400;-50
2022/06/18 06:50:59;;;;;;;8.68;7.88;;;;;;;19.81;70.85;101274.13;5027348;28;104482;-50
2022/06/18 06:53:26;;;;;;;7.78;7.15;;;;;;;19.81;70.53;101280.47;5036212;28;101980;-51
2022/06/18 06:58:39;;;;;;;7.32;6.72;;;;;;;19.81;70.33;101285.19;5036556;28;102223;-50
2022/06/18 07:01:06;;;;;;;7.93;7.20;;;;;;;19.82;70.50;101287.59;5034733;28;103886;-51
2022/06/18 07:03:34;;;;;;;7.88;7.18;;;;;;;19.83;70.19;101283.69;5034671;28;101980;-51
2022/06/18 07:06:01;;;;;;;7.57;6.90;;;;;;;19.82;69.95;101292.31;5032787;28;102629;-50
2022/06/18 07:08:29;;;;;;;8.50;6.80;;;;;;;19.81;70.27;101288.75;5039840;27;102004;-50
2022/06/18 07:10:58;;;;;;;8.43;6.93;;;;;;;19.82;70.00;101289.56;5035093;28;104254;-51
2022/06/18 07:13:24;;;;;;;7.05;6.45;;;;;;;19.80;71.11;101289.88;5039694;28;102430;-51
2022/06/18 07:15:56;;;;;;;7.93;7.22;;;;;;;19.80;70.73;101289.88;5039036;28;101977;-51
2022/06/18 07:18:26;;;;;;;8.20;7.50;;;;;;;19.79;70.72;101291.00;5039635;28;102201;-51
2022/06/18 07:20:53;;;;;;;8.45;7.57;;;;;;;19.80;70.66;101295.41;5029132;28;104073;-51
2022/06/18 07:23:19;;;;;;;8.25;7.55;;;;;;;19.80;70.69;101289.03;5031955;28;102187;-51
2022/06/18 07:25:46;;;;;;;8.05;7.35;;;;;;;19.79;70.39;101296.53;5033802;28;102326;-51
2022/06/18 07:28:14;;;;;;;8.45;7.63;;;;;;;19.79;70.86;101301.25;5029748;28;102160;-51
2022/06/18 07:30:41;;;;;;;7.20;6.60;;;;;;;19.78;70.95;101296.84;5032651;28;103866;-51
2022/06/18 07:33:14;;;;;;;7.30;6.70;;;;;;;19.77;70.61;101296.03;5038120;28;103111;-50
2022/06/18 07:35:41;;;;;;;7.65;6.95;;;;;;;19.77;70.78;101296.03;5035357;28;102165;-51
2022/06/18 07:38:07;;;;;;;7.43;6.80;;;;;;;19.76;71.14;101294.41;5039696;27;102137;-51
2022/06/18 07:40:43;;;;;;;7.00;6.40;;;;;;;19.76;70.79;101297.16;5037506;28;103848;-51
2022/06/18 07:43:16;;;;;;;7.75;6.97;;;;;;;19.75;70.51;101306.59;5039426;28;102410;-51
2022/06/18 07:45:44;;;;;;;7.28;6.68;;;;;;;19.74;70.65;101302.19;5034218;28;102328;-51
2022/06/18 07:48:11;;;;;;;8.10;7.40;;;;;;;19.75;71.46;101305.78;5039156;27;102170;-51
2022/06/18 07:50:42;;;;;;;7.78;7.07;;;;;;;19.75;71.06;101294.72;5037714;28;103863;-51
2022/06/18 07:53:13;;;;;;;8.02;7.32;;;;;;;19.75;70.43;101295.53;5039151;28;102131;-50
2022/06/18 07:55:40;;;;;;;8.23;7.43;;;;;;;19.75;70.61;101298.28;5033503;28;101946;-51
2022/06/18 07:58:07;;;;;;;9.50;8.60;;;;;;;19.74;70.85;101296.69;5039430;28;102196;-51
2022/06/18 08:00:39;;;;;;;7.85;7.05;;;;;;;19.75;71.00;101292.78;5036922;28;104180;-51
2022/06/18 08:03:06;;;;;;;9.05;8.15;;;;;;;19.76;70.41;101308.19;5038743;28;102266;-51
2022/06/18 08:05:33;;;;;;;8.45;7.65;;;;;;;19.76;70.73;101299.91;5037961;28;102241;-51
2022/06/18 08:08:00;;;;;;;8.60;7.82;;;;;;;19.76;70.80;101305.44;5039913;28;102146;-50
2022/06/18 08:10:27;;;;;;;8.07;7.22;;;;;;;19.76;70.27;101302.69;5037626;28;104090;-51
2022/06/18 08:12:54;;;;;;;9.20;8.27;;;;;;;19.76;70.81;101297.16;5038747;28;101892;-51
2022/06/18 08:15:21;;;;;;;8.25;7.35;;;;;;;19.78;70.84;101302.38;5034550;28;102445;-51
2022/06/18 08:17:50;;;;;;;8.18;7.38;;;;;;;19.76;70.77;101294.41;5038806;28;102457;-51
2022/06/18 08:20:16;;;;;;;8.38;7.50;;;;;;;19.76;70.54;101288.88;5036942;27;104211;-51
2022/06/18 08:22:47;;;;;;;8.00;7.30;;;;;;;19.77;69.54;101293.28;5038366;28;102386;-51
2022/06/18 08:25:16;;;;;;;7.93;7.22;;;;;;;19.76;70.94;101288.88;5037865;28;101964;-51
2022/06/18 08:27:43;;;;;;;;;;;;;;;19.79;71.33;101292.94;5038934;28;102265;-51
2022/06/18 08:30:13;;;;;;;9.02;8.23;;;;;;;19.79;70.96;101295.72;5035955;28;103927;-50
2022/06/18 08:32:40;;;;;;;8.27;6.95;;;;;;;19.80;71.41;101300.94;5036195;28;102186;-51
2022/06/18 08:35:09;;;;;;;8.85;6.78;;;;;;;19.83;69.92;101293.94;5037630;28;102206;-51
2022/06/18 08:37:35;;;;;;;;;;;;;;;19.85;69.71;101288.91;5039187;27;102473;-51
2022/06/18 08:40:34;;;;;;;7.40;6.70;;;;;;;19.87;69.65;101295.75;5037390;28;104377;-51
2022/06/18 08:43:04;;;;;;;7.10;6.50;;;;;;;19.89;69.86;101293.47;5038400;28;101960;-51
2022/06/18 08:45:39;;;;;;;7.43;6.82;;;;;;;19.89;69.65;101299.00;5029337;28;102222;-50
2022/06/18 08:48:34;;;;;;;7.18;6.45;;;;;;;19.88;69.71;101291.84;5038151;28;102593;-51
2022/06/18 08:51:16;;;;;;;7.00;6.40;;;;;;;19.86;70.62;101294.09;5030583;28;103919;-50
2022/06/18 08:54:22;;;;;;;7.30;6.60;;;;;;;19.84;70.52;101293.63;5037774;28;102325;-50
2022/06/18 08:56:57;;;;;;;7.15;6.45;;;;;;;19.84;69.94;101285.34;5033039;28;102288;-50
2022/06/18 08:59:34;;;;;;;7.20;6.60;;;;;;;19.89;68.75;101284.38;5038685;28;102231;-51
2022/06/18 09:02:13;;;;;;;6.60;6.03;;;;;;;19.90;69.90;101283.22;5037083;28;103889;-50
2022/06/18 09:04:48;;;;;;;6.80;6.20;;;;;;;19.90;69.01;101284.03;5035766;28;102317;-51
2022/06/18 09:07:36;;;;;;;6.60;5.85;;;;;;;19.91;68.40;101285.69;5034434;28;102595;-50
2022/06/18 09:10:12;;;;;;;;;;;;;;;19.96;68.85;101279.19;5026307;28;102293;-51
2022/06/18 09:12:44;;;;;;;5.97;5.47;;;;;;;19.97;68.46;101274.47;5034974;28;104088;-51
2022/06/18 09:15:17;;;;;;;6.45;5.82;;;;;;;19.97;68.85;101282.78;5035470;28;102292;-51
2022/06/18 09:17:49;;;;;;;6.93;6.32;;;;;;;19.94;69.33;101284.22;5028874;28;102489;-50
2022/06/18 09:20:21;;;;;;;6.93;6.32;;;;;;;19.94;69.44;101289.75;5033683;28;102532;-51
2022/06/18 09:22:52;;;;;;;6.97;6.28;;;;;;;19.95;70.45;101290.59;5030724;28;104017;-51
2022/06/18 09:25:22;;;;;;;6.45;5.95;;;;;;;19.93;70.01;101288.94;5022846;28;102068;-51
2022/06/18 09:27:56;;;;;;;7.22;6.53;;;;;;;19.93;70.89;101283.41;5035825;28;102024;-51
2022/06/18 09:30:28;;;;;;;6.60;5.88;;;;;;;19.93;70.50;101294.47;5036193;27;102007;-50
2022/06/18 09:33:02;;;;;;;7.05;6.45;;;;;;;19.92;70.65;101292.84;5033499;28;103949;-51
2022/06/18 09:35:35;;;;;;;7.05;6.45;;;;;;;19.94;70.18;101298.03;5037362;28;102134;-51
2022/06/18 09:38:07;;;;;;;6.88;6.28;;;;;;;19.91;70.79;101298.69;5036812;28;102162;-51
2022/06/18 09:40:38;;;;;;;6.93;6.32;;;;;;;19.92;70.16;101298.38;5038402;28;102061;-50
2022/06/18 09:43:14;;;;;;;6.93;6.43;;;;;;;19.92;70.46;101292.84;5036029;28;103911;-51
2022/06/18 09:45:48;;;;;;;6.88;6.35;;;;;;;19.93;70.92;101293.66;5036535;28;101989;-50
2022/06/18 09:48:14;;;;;;;6.85;6.25;;;;;;;19.91;70.56;101291.22;5032094;27;102029;-51
2022/06/18 09:50:47;;;;;;;6.32;5.82;;;;;;;19.92;70.69;101284.56;5034154;28;102392;-51
2022/06/18 09:53:22;;;;;;;6.55;5.95;;;;;;;19.92;70.25;101292.84;5036737;28;103793;-51
2022/06/18 09:55:53;;;;;;;7.18;6.63;;;;;;;19.93;70.77;101288.13;5036903;28;102037;-51
2022/06/18 09:58:25;;;;;;;6.55;6.00;;;;;;;19.91;70.66;101285.69;5036592;28;102493;-51
2022/06/18 10:00:53;;;;;;;6.60;6.10;;;;;;;19.91;70.93;101291.22;5037038;28;102040;-51
2022/06/18 10:09:04;;;;;;;5.70;5.30;;;;;;;19.91;70.85;101285.69;5036402;28;102247;-51
2022/06/18 10:11:31;;;;;;;6.57;6.07;;;;;;;19.90;70.43;101289.56;5037675;28;102104;-51
2022/06/18 10:14:06;;;;;;;6.30;5.90;;;;;;;19.91;70.87;101285.69;5035749;28;104125;-51
2022/06/18 10:16:57;;;;;;;6.55;6.05;;;;;;;19.92;70.61;101287.31;5033886;28;102133;-51
2022/06/18 10:19:39;;;;;;;6.32;5.82;;;;;;;19.93;70.61;101294.47;5016557;28;102573;-51
2022/06/18 10:22:19;;;;;;;6.25;5.60;;;;;;;19.92;70.75;101297.56;5017536;28;102340;-51
2022/06/18 10:24:54;;;;;;;6.38;5.78;;;;;;;19.93;70.63;101297.22;5014340;28;107661;-51
2022/06/18 10:27:30;;;;;;;6.20;5.70;;;;;;;19.93;70.36;101294.47;5033623;28;102276;-51
2022/06/18 10:30:02;;;;;;;6.55;6.05;;;;;;;19.92;70.80;101297.56;5036304;28;102314;-51
2022/06/18 10:32:41;;;;;;;6.47;5.97;;;;;;;19.90;71.28;101292.34;5034392;28;102489;-51
2022/06/18 10:35:21;;;;;;;6.25;5.75;;;;;;;19.89;70.55;101293.47;5033317;27;104006;-51
2022/06/18 10:38:01;;;;;;;6.47;5.90;;;;;;;19.90;70.66;101299.81;5035955;28;102160;-51
2022/06/18 10:40:41;;;;;;;6.22;5.72;;;;;;;19.91;70.49;101296.75;5036567;28;102442;-50
2022/06/18 10:43:23;;;;;;;6.75;5.53;;;;;;;19.92;70.83;101306.66;5036376;28;102285;-51
2022/06/18 10:45:55;;;;;;;7.15;5.53;;;;;;;19.90;71.23;101303.38;5034131;28;103925;-51
2022/06/18 10:48:26;;;;;;;6.43;5.85;;;;;;;19.90;70.96;101311.66;5025317;28;102531;-51
2022/06/18 10:50:57;;;;;;;6.35;5.75;;;;;;;19.88;70.82;101297.38;5014751;28;102173;-51
2022/06/18 10:53:26;;;;;;;6.05;5.55;;;;;;;19.91;70.40;101304.22;5034068;28;102149;-51
2022/06/18 10:55:59;;;;;;;6.35;5.85;;;;;;;19.91;71.03;101306.97;5035168;28;104462;-50
2022/06/18 10:58:27;;;;;;;5.78;5.28;;;;;;;19.91;70.78;101302.28;5036112;28;102049;-51
2022/06/18 11:00:57;;;;;;;6.20;5.70;;;;;;;19.91;70.58;101296.75;5035954;28;102159;-51
2022/06/18 11:03:28;;;;;;;5.90;5.40;;;;;;;19.91;70.35;101302.28;5020785;28;102592;-51
2022/06/18 11:05:56;;;;;;;5.78;5.38;;;;;;;19.93;70.30;101293.66;5029092;28;104154;-51
2022/06/18 11:08:25;;;;;;;6.22;5.72;;;;;;;19.91;71.01;101302.28;5036078;28;102117;-51
2022/06/18 11:10:58;;;;;;;5.47;5.07;;;;;;;19.90;70.96;101300.63;5035702;28;102061;-51
2022/06/18 11:13:28;;;;;;;6.28;5.30;;;;;;;19.92;70.56;101292.84;5036640;28;102256;-51
2022/06/18 11:16:11;;;;;;;6.13;5.63;;;;;;;19.90;70.97;101295.09;5034336;28;103940;-51
2022/06/18 11:18:51;;;;;;;5.95;5.45;;;;;;;19.90;70.60;101295.09;5030498;28;102407;-51
2022/06/18 11:21:25;;;;;;;5.70;5.30;;;;;;;19.90;70.83;101288.75;5026199;28;104998;-51
2022/06/18 11:23:55;;;;;;;6.32;5.82;;;;;;;19.92;70.37;101294.78;5026528;28;102118;-51
2022/06/18 11:26:26;;;;;;;5.88;5.43;;;;;;;19.92;71.03;101292.84;5022499;28;103750;-50
2022/06/18 11:28:56;;;;;;;5.05;4.65;;;;;;;19.91;70.87;101296.75;5024279;28;102000;-50
2022/06/18 11:31:26;;;;;;;5.53;5.03;;;;;;;19.91;70.51;101287.66;5021936;28;102326;-51
2022/06/18 11:33:58;;;;;;;5.93;5.43;;;;;;;19.89;71.14;101290.72;5035028;27;104203;-49
2022/06/18 11:36:44;;;;;;;5.28;4.88;;;;;;;19.93;70.64;101283.41;5032394;28;104226;-48
2022/06/18 11:39:27;;;;;;;5.90;5.40;;;;;;;19.92;70.91;101292.84;5034710;28;102086;-49
2022/06/18 11:42:00;;;;;;;5.50;5.10;;;;;;;19.91;70.61;101293.97;5029078;28;102382;-49
2022/06/18 11:44:31;;;;;;;5.70;5.30;;;;;;;19.92;70.77;101284.56;5035703;28;102265;-48
2022/06/18 11:47:07;;;;;;;5.53;5.13;;;;;;;19.90;70.91;101286.00;5010269;28;108258;-49
2022/06/18 11:49:40;;;;;;;5.55;5.13;;;;;;;19.90;70.71;101286.81;5035408;28;102655;-49